Berry Creek, CA (95916)

7:43 PM PDT on September 17, 2014 (GMT -0700)
JARBO GAP | Change Station
CLOSE
Current Station
Personal Weather Station
Location: Oroville, CA
Elevation: 2509 ft
Nearby Weather Stations

Elev 2509 ft 39.74 °N, 121.49 °W | Updated 10 minutes ago

Partly Cloudy
Partly Cloudy
73.0 °F
Feels Like 77 °F
N
4.0
Wind Variable Wind from WSW

Today
High -- | Low -- °F
--% Chance of Precip.
Yesterday
High -- | Low -- °F
Precip. -- in
6:48 AM 7:10 PM
Waning Crescent, 31% visible
Pressure 29.67 in
Visibility 10.0 miles
Clouds Clear
Heat Index 77 °F
Dew Point 47 °F
Humidity 39%
Rainfall -999.00 in
Snow Depth 0 in , 0 in , 0 in
UV 0 out of 12
Pollen 6.20 out of 12
Air Quality Not available.
Flu Activity Not available.
METAR KCIC 180235Z AUTO 15013G19KT 10SM CLR 28/09 A2967 RMK AO1

More Conditions Fewer Conditions

Pressure 29.67 in
Visibility 10.0 miles
Clouds Clear
Heat Index 77 °F
Dew Point 47 °F
Humidity 39%
Rainfall -999.00 in
Snow Depth 0 in , 0 in , 0 in
UV 0 out of 12
Pollen 6.20 out of 12
Air Quality Not available.
Flu Activity Not available.
METAR KCIC 180235Z AUTO 15013G19KT 10SM CLR 28/09 A2967 RMK AO1

More Conditions Fewer Conditions

10-Day Weather Forecast

Almanac

Astronomy

Sep. 17, 2014 Rise Set
Actual Time 6:48 AM PDT 7:10 PM PDT
Civil Twilight 6:21 AM PDT 7:37 PM PDT
Nautical Twilight 5:49 AM PDT 8:09 PM PDT
Astronomical Twilight 5:17 AM PDT 8:41 PM PDT
Moon 12:53 AM PDT (9/17) 3:23 PM PDT (9/17)
Length of Visible Light 13h 15m
Length of Day
12h 22m
Tomorrow will be 2m 34s shorter.
Waning Crescent, 31% of the Moon is Illuminated
Today
Waning Crescent
Sep 24
New
Oct 1
First Quarter
Oct 8
Full
Oct 15
Last Quarter

Today's Extremes

State Highs State Lows

Community

WunderPhotos

Upload Photos

1,754,268 photos uploaded!

Nearby

Snow Depth

Station Depth Elevation
Leavitt Lake 0 in 9400 ft
Tahoe City Cross 0 in 6750 ft
Spratt Creek 0 in 6200 ft
Leavitt Meadows 0 in 7200 ft
CSS Lab 2 in 6900 ft

Earthquake Activity

City Distance Mag. Time & Date
Cobb, California 92 miles 2.7 1:23 PM PDT
2014-09-16
Minimum magnitude displayed is 2.5.

Coastal Water Temperatures

Place Temperature
No Stations Reporting

Nearby Weather Stations